PWSweather.com
Personal Weather Stations
Station Observations
KCTHAMDEN
Dunbar Hill, Hamden, CT 06514

Dunbar HillHamden, CT 06514

Lat: 41.365437, Lon: -72.956532

Elevation: 200

Station Type: Davis Vantage Pro2+

www.hamdenweather.com

High Low Average
Temperature 38.0°F3.3°C 22.2°F-5.4°C 29.5°F-1.4°C
Dew Point 19.2°F-7.1°C -0.7°F-18.2°C 7.0°F-13.9°C
Winds 1.0 mph 1.6 kmh Calm Calm Calm SCalm S
Wind Gusts 10.0 mph16.1 kmh -- 1.0 mph1.6 kmh
Humidity 72% 21% 40%
Pressure 29.94 in1013.9 mb 29.83 in1010.2 mb -
Precipitation 0.00 in0.0 mm - -
Hour Temp Dew Point Humidity Winds Wind Gusts Pressure Precip Precip Rate Daily Precip Total
12:00 AM 29.9°F-1.2°C 15.6°F-9.1°C 55% Calm Calm -- 29.82 in1009.8 mb - 0.00 in0.0 mm 0.00 in0.0 mm
12:15 AM 29.1°F-1.6°C 14.5°F-9.7°C 54% Calm Calm -- 29.82 in1009.8 mb - 0.00 in0.0 mm 0.00 in0.0 mm
12:30 AM 28.9°F-1.7°C 14.8°F-9.6°C 55% Calm Calm -- 29.82 in1009.8 mb - 0.00 in0.0 mm 0.00 in0.0 mm
12:45 AM 28.9°F-1.7°C 13.0°F-10.6°C 51% Calm Calm -- 29.83 in1010.2 mb - 0.00 in0.0 mm 0.00 in0.0 mm
01:00 AM 28.6°F-1.9°C 13.2°F-10.4°C 52% Calm Calm -- 29.83 in1010.2 mb - 0.00 in0.0 mm 0.00 in0.0 mm
01:15 AM 28.0°F-2.2°C 12.6°F-10.8°C 52% Calm Calm -- 29.83 in1010.2 mb - 0.00 in0.0 mm 0.00 in0.0 mm
01:30 AM 27.5°F-2.5°C 12.5°F-10.8°C 53% Calm Calm -- 29.84 in1010.5 mb - 0.00 in0.0 mm 0.00 in0.0 mm
01:45 AM 27.8°F-2.3°C 13.3°F-10.4°C 54% Calm Calm -- 29.84 in1010.5 mb - 0.00 in0.0 mm 0.00 in0.0 mm
02:00 AM 28.3°F-2.1°C 11.1°F-11.6°C 48% Calm Calm -- 29.85 in1010.8 mb - 0.00 in0.0 mm 0.00 in0.0 mm
02:15 AM 28.7°F-1.8°C 10.5°F-11.9°C 46% Calm Calm -- 29.85 in1010.8 mb - 0.00 in0.0 mm 0.00 in0.0 mm
02:30 AM 28.7°F-1.8°C 10.0°F-12.2°C 45% Calm Calm -- 29.85 in1010.8 mb - 0.00 in0.0 mm 0.00 in0.0 mm
02:45 AM 28.4°F-2.0°C 9.2°F-12.7°C 44% Calm Calm -- 29.85 in1010.8 mb - 0.00 in0.0 mm 0.00 in0.0 mm
03:00 AM 28.2°F-2.1°C 8.5°F-13.1°C 43% 0.1 mph WSW0.2 kmh WSW 1.0 mph1.6 kmh 29.86 in1011.2 mb - 0.00 in0.0 mm 0.00 in0.0 mm
03:15 AM 27.9°F-2.3°C 7.2°F-13.8°C 41% Calm Calm -- 29.86 in1011.2 mb - 0.00 in0.0 mm 0.00 in0.0 mm
03:30 AM 27.6°F-2.4°C 7.5°F-13.6°C 42% Calm Calm -- 29.87 in1011.5 mb - 0.00 in0.0 mm 0.00 in0.0 mm
03:45 AM 27.2°F-2.7°C 7.6°F-13.6°C 43% 0.1 mph WNW0.2 kmh WNW 1.0 mph1.6 kmh 29.87 in1011.5 mb - 0.00 in0.0 mm 0.00 in0.0 mm
04:00 AM 26.8°F-2.9°C 7.2°F-13.8°C 43% 0.1 mph WNW0.2 kmh WNW -- 29.87 in1011.5 mb - 0.00 in0.0 mm 0.00 in0.0 mm
04:15 AM 26.4°F-3.1°C 7.4°F-13.7°C 44% Calm Calm -- 29.87 in1011.5 mb - 0.00 in0.0 mm 0.00 in0.0 mm
04:30 AM 26.2°F-3.2°C 7.2°F-13.8°C 44% Calm Calm -- 29.88 in1011.9 mb - 0.00 in0.0 mm 0.00 in0.0 mm
04:45 AM 25.8°F-3.4°C 6.3°F-14.3°C 43% Calm Calm -- 29.88 in1011.9 mb - 0.00 in0.0 mm 0.00 in0.0 mm
05:00 AM 25.5°F-3.6°C 5.6°F-14.7°C 42% 0.1 mph WSW0.2 kmh WSW 2.0 mph3.2 kmh 29.88 in1011.9 mb - 0.00 in0.0 mm 0.00 in0.0 mm
05:15 AM 25.2°F-3.8°C 6.3°F-14.3°C 44% Calm Calm -- 29.89 in1012.2 mb - 0.00 in0.0 mm 0.00 in0.0 mm
05:30 AM 24.9°F-3.9°C 4.5°F-15.3°C 41% Calm Calm -- 29.89 in1012.2 mb - 0.00 in0.0 mm 0.00 in0.0 mm
05:45 AM 24.6°F-4.1°C 4.2°F-15.4°C 41% 0.1 mph NNE0.2 kmh NNE 1.0 mph1.6 kmh 29.89 in1012.2 mb - 0.00 in0.0 mm 0.00 in0.0 mm
06:00 AM 24.1°F-4.4°C 3.3°F-15.9°C 40% Calm Calm -- 29.90 in1012.5 mb - 0.00 in0.0 mm 0.00 in0.0 mm
06:15 AM 23.7°F-4.6°C 2.3°F-16.5°C 39% Calm Calm -- 29.91 in1012.9 mb - 0.00 in0.0 mm 0.00 in0.0 mm
06:30 AM 23.2°F-4.9°C 1.3°F-17.1°C 38% Calm Calm -- 29.91 in1012.9 mb - 0.00 in0.0 mm 0.00 in0.0 mm
06:45 AM 23.0°F-5.0°C 1.7°F-16.8°C 39% Calm Calm -- 29.92 in1013.2 mb - 0.00 in0.0 mm 0.00 in0.0 mm
07:00 AM 22.6°F-5.2°C 1.3°F-17.1°C 39% Calm Calm 1.0 mph1.6 kmh 29.92 in1013.2 mb - 0.00 in0.0 mm 0.00 in0.0 mm
07:15 AM 22.3°F-5.4°C 1.6°F-16.9°C 40% Calm Calm -- 29.92 in1013.2 mb - 0.00 in0.0 mm 0.00 in0.0 mm
07:30 AM 22.2°F-5.4°C 1.5°F-16.9°C 40% Calm Calm -- 29.93 in1013.5 mb - 0.00 in0.0 mm 0.00 in0.0 mm
07:45 AM 22.4°F-5.3°C 2.2°F-16.6°C 41% Calm Calm -- 29.93 in1013.5 mb - 0.00 in0.0 mm 0.00 in0.0 mm
08:00 AM 22.7°F-5.2°C 1.4°F-17.0°C 39% 0.1 mph N0.2 kmh N 2.0 mph3.2 kmh 29.94 in1013.9 mb - 0.00 in0.0 mm 0.00 in0.0 mm
08:15 AM 22.7°F-5.2°C -0.3°F-17.9°C 36% Calm Calm 2.0 mph3.2 kmh 29.94 in1013.9 mb - 0.00 in0.0 mm 0.00 in0.0 mm
08:30 AM 23.0°F-5.0°C -0.6°F-18.1°C 35% 0.2 mph W0.3 kmh W 1.0 mph1.6 kmh 29.94 in1013.9 mb - 0.00 in0.0 mm 0.00 in0.0 mm
08:45 AM 23.5°F-4.7°C -0.2°F-17.9°C 35% Calm Calm 1.0 mph1.6 kmh 29.94 in1013.9 mb - 0.00 in0.0 mm 0.00 in0.0 mm
09:00 AM 23.7°F-4.6°C 0.0°F-17.8°C 35% Calm Calm -- 29.94 in1013.9 mb - 0.00 in0.0 mm 0.00 in0.0 mm
09:15 AM 24.4°F-4.2°C 0.7°F-17.4°C 35% Calm Calm -- 29.94 in1013.9 mb - 0.00 in0.0 mm 0.00 in0.0 mm
09:30 AM 25.1°F-3.8°C 0.0°F-17.8°C 33% Calm Calm 1.0 mph1.6 kmh 29.94 in1013.9 mb - 0.00 in0.0 mm 0.00 in0.0 mm
09:45 AM 25.2°F-3.8°C 0.1°F-17.7°C 33% Calm Calm -- 29.94 in1013.9 mb - 0.00 in0.0 mm 0.00 in0.0 mm
10:00 AM 25.8°F-3.4°C -0.7°F-18.2°C 31% Calm Calm 1.0 mph1.6 kmh 29.94 in1013.9 mb - 0.00 in0.0 mm 0.00 in0.0 mm
10:15 AM 26.6°F-3.0°C 0.7°F-17.4°C 32% 0.1 mph N0.2 kmh N 1.0 mph1.6 kmh 29.94 in1013.9 mb - 0.00 in0.0 mm 0.00 in0.0 mm
10:30 AM 27.7°F-2.4°C 2.3°F-16.5°C 33% 0.2 mph NW0.3 kmh NW 6.0 mph9.7 kmh 29.94 in1013.9 mb - 0.00 in0.0 mm 0.00 in0.0 mm
10:45 AM 28.6°F-1.9°C 1.7°F-16.8°C 31% Calm Calm -- 29.93 in1013.5 mb - 0.00 in0.0 mm 0.00 in0.0 mm
11:00 AM 29.0°F-1.7°C 3.4°F-15.9°C 33% Calm Calm -- 29.93 in1013.5 mb - 0.00 in0.0 mm 0.00 in0.0 mm
11:15 AM 29.5°F-1.4°C 0.3°F-17.6°C 28% Calm Calm -- 29.93 in1013.5 mb - 0.00 in0.0 mm 0.00 in0.0 mm
11:30 AM 30.5°F-0.8°C 1.3°F-17.1°C 28% Calm Calm 1.0 mph1.6 kmh 29.93 in1013.5 mb - 0.00 in0.0 mm 0.00 in0.0 mm
11:45 AM 31.0°F-0.6°C 1.7°F-16.8°C 28% Calm Calm 1.0 mph1.6 kmh 29.93 in1013.5 mb - 0.00 in0.0 mm 0.00 in0.0 mm
12:00 PM 31.4°F-0.3°C 2.8°F-16.2°C 29% 0.2 mph WNW0.3 kmh WNW 3.0 mph4.8 kmh 29.94 in1013.9 mb - 0.00 in0.0 mm 0.00 in0.0 mm
12:15 PM 32.0°F0.0°C 1.0°F-17.2°C 26% Calm Calm -- 29.93 in1013.5 mb - 0.00 in0.0 mm 0.00 in0.0 mm
12:30 PM 32.5°F0.3°C -0.4°F-18.0°C 24% Calm Calm -- 29.94 in1013.9 mb - 0.00 in0.0 mm 0.00 in0.0 mm
12:45 PM 33.0°F0.6°C 1.8°F-16.8°C 26% Calm Calm 1.0 mph1.6 kmh 29.93 in1013.5 mb - 0.00 in0.0 mm 0.00 in0.0 mm
01:00 PM 33.8°F1.0°C 4.9°F-15.1°C 29% Calm Calm 2.0 mph3.2 kmh 29.93 in1013.5 mb - 0.00 in0.0 mm 0.00 in0.0 mm
01:15 PM 34.6°F1.4°C 0.5°F-17.5°C 23% 0.1 mph N0.2 kmh N 1.0 mph1.6 kmh 29.92 in1013.2 mb - 0.00 in0.0 mm 0.00 in0.0 mm
01:30 PM 34.1°F1.2°C 1.0°F-17.2°C 24% Calm Calm -- 29.92 in1013.2 mb - 0.00 in0.0 mm 0.00 in0.0 mm
01:45 PM 34.9°F1.6°C 2.6°F-16.3°C 25% Calm Calm 1.0 mph1.6 kmh 29.92 in1013.2 mb - 0.00 in0.0 mm 0.00 in0.0 mm
02:00 PM 35.0°F1.7°C -0.1°F-17.8°C 22% Calm Calm -- 29.91 in1012.9 mb - 0.00 in0.0 mm 0.00 in0.0 mm
02:15 PM 35.8°F2.1°C 0.6°F-17.4°C 22% Calm Calm -- 29.91 in1012.9 mb - 0.00 in0.0 mm 0.00 in0.0 mm
02:30 PM 36.3°F2.4°C 4.6°F-15.2°C 26% 0.2 mph SW0.3 kmh SW 3.0 mph4.8 kmh 29.91 in1012.9 mb - 0.00 in0.0 mm 0.00 in0.0 mm
02:45 PM 36.0°F2.2°C -0.2°F-17.9°C 21% 0.1 mph N0.2 kmh N 2.0 mph3.2 kmh 29.91 in1012.9 mb - 0.00 in0.0 mm 0.00 in0.0 mm
03:00 PM 36.0°F2.2°C 0.8°F-17.3°C 22% 1.0 mph SW1.6 kmh SW 10.0 mph16.1 kmh 29.90 in1012.5 mb - 0.00 in0.0 mm 0.00 in0.0 mm
03:15 PM 35.9°F2.2°C 0.7°F-17.4°C 22% Calm Calm 1.0 mph1.6 kmh 29.90 in1012.5 mb - 0.00 in0.0 mm 0.00 in0.0 mm
03:30 PM 36.4°F2.4°C 3.9°F-15.6°C 25% Calm Calm -- 29.90 in1012.5 mb - 0.00 in0.0 mm 0.00 in0.0 mm
03:45 PM 37.1°F2.8°C 4.4°F-15.3°C 25% Calm Calm 1.0 mph1.6 kmh 29.90 in1012.5 mb - 0.00 in0.0 mm 0.00 in0.0 mm
04:00 PM 37.4°F3.0°C 5.6°F-14.7°C 26% Calm Calm 2.0 mph3.2 kmh 29.90 in1012.5 mb - 0.00 in0.0 mm 0.00 in0.0 mm
04:15 PM 37.9°F3.3°C 7.6°F-13.6°C 28% Calm Calm -- 29.89 in1012.2 mb - 0.00 in0.0 mm 0.00 in0.0 mm
04:30 PM 38.0°F3.3°C 6.9°F-13.9°C 27% 0.1 mph NE0.2 kmh NE 1.0 mph1.6 kmh 29.89 in1012.2 mb - 0.00 in0.0 mm 0.00 in0.0 mm
04:45 PM 37.5°F3.1°C 8.1°F-13.3°C 29% Calm Calm 1.0 mph1.6 kmh 29.89 in1012.2 mb - 0.00 in0.0 mm 0.00 in0.0 mm
05:00 PM 37.6°F3.1°C 7.4°F-13.7°C 28% Calm Calm 1.0 mph1.6 kmh 29.89 in1012.2 mb - 0.00 in0.0 mm 0.00 in0.0 mm
05:15 PM 37.7°F3.2°C 8.2°F-13.2°C 29% Calm Calm -- 29.89 in1012.2 mb - 0.00 in0.0 mm 0.00 in0.0 mm
05:30 PM 37.8°F3.2°C 7.5°F-13.6°C 28% Calm Calm -- 29.89 in1012.2 mb - 0.00 in0.0 mm 0.00 in0.0 mm
05:45 PM 36.9°F2.7°C 7.5°F-13.6°C 29% Calm Calm -- 29.89 in1012.2 mb - 0.00 in0.0 mm 0.00 in0.0 mm
06:00 PM 36.4°F2.4°C 7.9°F-13.4°C 30% Calm Calm -- 29.90 in1012.5 mb - 0.00 in0.0 mm 0.00 in0.0 mm
06:15 PM 36.0°F2.2°C 8.9°F-12.8°C 32% Calm Calm -- 29.89 in1012.2 mb - 0.00 in0.0 mm 0.00 in0.0 mm
06:30 PM 35.7°F2.1°C 8.7°F-12.9°C 32% 0.1 mph NNE0.2 kmh NNE -- 29.90 in1012.5 mb - 0.00 in0.0 mm 0.00 in0.0 mm
06:45 PM 35.3°F1.8°C 9.0°F-12.8°C 33% Calm Calm -- 29.90 in1012.5 mb - 0.00 in0.0 mm 0.00 in0.0 mm
07:00 PM 34.9°F1.6°C 9.4°F-12.6°C 34% 0.1 mph WSW0.2 kmh WSW 1.0 mph1.6 kmh 29.90 in1012.5 mb - 0.00 in0.0 mm 0.00 in0.0 mm
07:15 PM 34.1°F1.2°C 10.5°F-11.9°C 37% Calm Calm -- 29.91 in1012.9 mb - 0.00 in0.0 mm 0.00 in0.0 mm
07:30 PM 33.2°F0.7°C 10.9°F-11.7°C 39% Calm Calm -- 29.91 in1012.9 mb - 0.00 in0.0 mm 0.00 in0.0 mm
07:45 PM 32.3°F0.2°C 11.2°F-11.6°C 41% Calm Calm -- 29.92 in1013.2 mb - 0.00 in0.0 mm 0.00 in0.0 mm
08:00 PM 31.5°F-0.3°C 11.5°F-11.4°C 43% Calm Calm -- 29.92 in1013.2 mb - 0.00 in0.0 mm 0.00 in0.0 mm
08:15 PM 30.6°F-0.8°C 11.8°F-11.2°C 45% Calm Calm -- 29.92 in1013.2 mb - 0.00 in0.0 mm 0.00 in0.0 mm
08:30 PM 29.9°F-1.2°C 12.5°F-10.8°C 48% Calm Calm -- 29.92 in1013.2 mb - 0.00 in0.0 mm 0.00 in0.0 mm
08:45 PM 29.2°F-1.6°C 13.8°F-10.1°C 52% Calm Calm -- 29.92 in1013.2 mb - 0.00 in0.0 mm 0.00 in0.0 mm
09:00 PM 28.7°F-1.8°C 13.7°F-10.2°C 53% Calm Calm -- 29.93 in1013.5 mb - 0.00 in0.0 mm 0.00 in0.0 mm
09:15 PM 28.2°F-2.1°C 14.5°F-9.7°C 56% Calm Calm -- 29.92 in1013.2 mb - 0.00 in0.0 mm 0.00 in0.0 mm
09:30 PM 27.7°F-2.4°C 13.6°F-10.2°C 55% Calm Calm -- 29.93 in1013.5 mb - 0.00 in0.0 mm 0.00 in0.0 mm
09:45 PM 27.4°F-2.6°C 14.5°F-9.7°C 58% Calm Calm -- 29.92 in1013.2 mb - 0.00 in0.0 mm 0.00 in0.0 mm
10:00 PM 27.4°F-2.6°C 15.3°F-9.3°C 60% Calm Calm -- 29.92 in1013.2 mb - 0.00 in0.0 mm 0.00 in0.0 mm
10:15 PM 27.5°F-2.5°C 15.4°F-9.2°C 60% Calm Calm -- 29.92 in1013.2 mb - 0.00 in0.0 mm 0.00 in0.0 mm
10:30 PM 27.2°F-2.7°C 15.5°F-9.2°C 61% Calm Calm -- 29.92 in1013.2 mb - 0.00 in0.0 mm 0.00 in0.0 mm
10:45 PM 26.9°F-2.8°C 15.6°F-9.1°C 62% Calm Calm -- 29.92 in1013.2 mb - 0.00 in0.0 mm 0.00 in0.0 mm
11:00 PM 26.6°F-3.0°C 15.7°F-9.1°C 63% Calm Calm -- 29.91 in1012.9 mb - 0.00 in0.0 mm 0.00 in0.0 mm
11:15 PM 26.6°F-3.0°C 15.7°F-9.1°C 63% Calm Calm -- 29.91 in1012.9 mb - 0.00 in0.0 mm 0.00 in0.0 mm
11:30 PM 26.5°F-3.1°C 15.6°F-9.1°C 63% Calm Calm -- 29.91 in1012.9 mb - 0.00 in0.0 mm 0.00 in0.0 mm
11:45 PM 26.6°F-3.0°C 17.1°F-8.3°C 67% Calm Calm -- 29.91 in1012.9 mb - 0.00 in0.0 mm 0.00 in0.0 mm